CYXU - London Airport

Pirep is a free, collaborative database of all public and private airports located within the United States. All pilots are welcome to contribute, edit, and improve any airport they have local knowledge about, no registration required.
Are you familiar with this airport? Help out other pilots by adding your local knowledge.
Uploaded photos will be licensed under a CC BY-SA 4.0 license. Please only upload photos you have the rights to use.
Tags
Public
Undocu­mented
METAR / TAF
Edit Tags
Food
Camping
Lodging
Car Rental
Bicycles
Swimming
Golfing
Fishing
Hot Springs
Museum
Flying Clubs
Airpark
Upcoming Events
No upcoming events. Is anything happening here soon?
*
*
*

Where exactly on/near the airport is this event taking place?

Is there a webpage with more information for this event?

Who should be contacted for more information?

What is this event all about?

Repeat every
Description
Transient Parking
Fuel Location
Landing & Tie-down Fees
Crew Car Availability
Flying Clubs
WiFi Access
Airport Statistics
Location: London, Ontario
Elevation: 912ft
Runway 15/33: 8,800ft
Runway 09/27: 6,300ft
Warning: This airport was imported from a non-authoritative source. It's public/private status may not be accurate.
Access: Open to the public
Current Weather — VFR
  • Weather data is strictly informational and not for flight planning purposes.
  • METAR
    2024-04-22 02:00:00 EDT
    Ceiling Wind Temperature Dewpoint Weather Visbility
    Sky clear 350° @ 5kt 35°F 24°F N/A 15SM
    Clouds: @ ft
    Raw: CYXU 220600Z 35005KT 15SM SKC 02/M04 A3006 RMK SLP189
  • TAF
    2024-04-22 02:00:00 EDT – 2024-04-22 10:00:00 EDT
    Ceiling Wind Weather Visbility
    Sky clear Variable N/A 6SM
    Clouds: @ ft
    Raw: TAF CYXU 220540Z 2206/2306 VRB03KT P6SM SKC FM221400 20008KT P6SM FEW050 BECMG 2215/2217 20010G20KT RMK NXT FCST BY 221200Z
  • TAF
    2024-04-22 10:00:00 EDT – 2024-04-22 11:00:00 EDT
    Ceiling Wind Weather Visbility
    Sky clear 200° @ 8kt N/A 6SM
    Clouds: Few @ 5,000ft
    Raw: TAF CYXU 220540Z 2206/2306 VRB03KT P6SM SKC FM221400 20008KT P6SM FEW050 BECMG 2215/2217 20010G20KT RMK NXT FCST BY 221200Z
  • TAF
    2024-04-22 11:00:00 EDT – 2024-04-23 02:00:00 EDT
    Ceiling Wind Weather Visbility
    Sky clear 200° @ 10kt, gusts 20kt N/A 6SM
    Clouds: Few @ 5,000ft
    Raw: TAF CYXU 220540Z 2206/2306 VRB03KT P6SM SKC FM221400 20008KT P6SM FEW050 BECMG 2215/2217 20010G20KT RMK NXT FCST BY 221200Z
Click/tap to add an annotation marker to the map
Airport Webcams
No webcams added yet.
Direct links to live image URLs will be displayed inline on this page. URLs to separate webpages will be linked to.
URL:
Direct links to live image URLs will be displayed inline on this page. URLs to separate webpages will be linked to.
URL:
Comments
Leave a comment What was your experience like at this airport?